createdAt,value
2019-05-13T00:01:53.979Z,2.70
2019-05-13T00:04:27.681Z,3.15
2019-05-13T00:07:01.200Z,2.33
2019-05-13T00:09:34.752Z,2.45
2019-05-13T00:12:08.279Z,2.12
2019-05-13T00:14:43.385Z,2.37
2019-05-13T00:17:16.871Z,2.22
2019-05-13T00:19:50.369Z,2.27
2019-05-13T00:22:23.851Z,2.55
2019-05-13T00:24:57.314Z,2.50
2019-05-13T00:27:30.740Z,2.10
2019-05-13T00:30:04.434Z,3.00
2019-05-13T00:32:37.972Z,2.67
2019-05-13T00:35:13.934Z,2.50
2019-05-13T00:37:47.644Z,2.52
2019-05-13T00:40:21.079Z,2.33
2019-05-13T00:42:54.639Z,2.50
2019-05-13T00:45:28.107Z,2.00
2019-05-13T00:48:04.182Z,2.22
2019-05-13T00:50:36.724Z,2.50
2019-05-13T00:53:10.593Z,2.98
2019-05-13T00:55:44.631Z,3.08
2019-05-13T00:58:18.234Z,2.83
2019-05-13T01:00:51.686Z,4.20
2019-05-13T01:03:28.287Z,3.52
2019-05-13T01:06:00.200Z,3.37
2019-05-13T01:08:33.927Z,2.87
2019-05-13T01:11:08.507Z,2.02
2019-05-13T01:13:43.467Z,2.20
2019-05-13T01:16:17.353Z,1.75
2019-05-13T01:18:50.815Z,2.22
2019-05-13T01:21:25.616Z,2.00
2019-05-13T01:23:59.132Z,2.02
2019-05-13T01:26:33.719Z,1.98
2019-05-13T01:29:07.723Z,2.50
2019-05-13T01:31:43.452Z,2.40
2019-05-13T01:34:18.039Z,3.08
2019-05-13T01:36:53.439Z,2.65
2019-05-13T01:39:27.428Z,2.22
2019-05-13T01:42:03.475Z,2.17
2019-05-13T01:44:35.865Z,2.30
2019-05-13T01:47:09.234Z,2.00
2019-05-13T01:49:43.990Z,2.55
2019-05-13T01:52:17.539Z,2.12
2019-05-13T01:54:51.010Z,2.00
2019-05-13T01:57:24.387Z,1.98
2019-05-13T01:59:57.857Z,2.00
2019-05-13T02:02:33.665Z,2.25
2019-05-13T02:05:07.880Z,2.10
2019-05-13T02:07:54.519Z,2.05
2019-05-13T02:10:18.661Z,2.37
2019-05-13T02:12:53.538Z,2.30
2019-05-13T02:15:26.956Z,2.35
2019-05-13T02:18:00.403Z,2.50
2019-05-13T02:20:33.905Z,3.15
2019-05-13T02:23:07.344Z,3.00
2019-05-13T02:25:43.435Z,3.15
2019-05-13T02:28:16.193Z,2.52
2019-05-13T02:30:49.698Z,2.27
2019-05-13T02:33:23.509Z,2.47
2019-05-13T02:35:58.165Z,2.35
2019-05-13T02:38:35.585Z,2.45
2019-05-13T02:41:07.130Z,2.27
2019-05-13T02:43:44.173Z,2.10
2019-05-13T02:46:15.632Z,1.80
2019-05-13T02:48:52.525Z,2.00
2019-05-13T02:51:24.177Z,1.92
2019-05-13T02:53:57.700Z,1.90
2019-05-13T02:56:33.085Z,2.27
2019-05-13T02:59:06.295Z,3.20
2019-05-13T03:01:42.992Z,1.82
2019-05-13T03:04:14.847Z,8.20
2019-05-13T03:06:48.269Z,6.28
2019-05-13T03:09:22.942Z,5.72
2019-05-13T03:11:57.162Z,8.65
2019-05-13T03:14:32.432Z,6.20
2019-05-13T03:17:13.073Z,7.62
2019-05-13T03:19:46.647Z,13.45
2019-05-13T03:22:22.464Z,12.82
2019-05-13T03:24:55.221Z,18.10
2019-05-13T03:27:28.752Z,10.58
2019-05-13T03:30:04.368Z,18.12
2019-05-13T03:32:44.115Z,9.55
2019-05-13T03:35:16.336Z,12.03
2019-05-13T03:37:47.851Z,14.87
2019-05-13T03:40:23.049Z,11.40
2019-05-13T03:43:02.766Z,8.70
2019-05-13T03:45:37.172Z,6.35
2019-05-13T03:48:12.186Z,4.12
2019-05-13T03:50:46.932Z,4.00
2019-05-13T03:53:23.279Z,3.75
2019-05-13T03:55:55.631Z,5.17
2019-05-13T03:58:32.439Z,10.80
2019-05-13T04:01:04.891Z,15.53
2019-05-13T04:03:38.450Z,8.95
2019-05-13T04:06:13.663Z,10.45
2019-05-13T04:08:47.318Z,7.12
2019-05-13T04:11:22.588Z,4.70
2019-05-13T04:13:55.763Z,6.42
2019-05-13T04:16:32.047Z,6.58
2019-05-13T04:19:04.470Z,8.60
2019-05-13T04:21:37.922Z,6.30
2019-05-13T04:24:12.279Z,7.15
2019-05-13T04:26:45.996Z,37.40
2019-05-13T04:29:23.283Z,50.98
2019-05-13T04:31:55.843Z,24.18
2019-05-13T04:34:29.418Z,16.30
2019-05-13T04:37:02.843Z,25.05
2019-05-13T04:39:46.137Z,20.05
2019-05-13T04:42:12.357Z,15.08
2019-05-13T04:44:45.998Z,5.42
2019-05-13T04:47:22.668Z,5.90
2019-05-13T04:49:54.496Z,4.50
2019-05-13T04:52:32.700Z,6.85
2019-05-13T04:55:04.741Z,5.15
2019-05-13T04:57:42.216Z,3.62
2019-05-13T05:00:14.630Z,3.95
2019-05-13T05:03:22.381Z,3.95
2019-05-13T05:06:22.673Z,2.92
2019-05-13T05:09:45.236Z,5.17
2019-05-13T05:16:46.565Z,12.37
2019-05-13T05:19:52.260Z,6.25
2019-05-13T05:23:42.307Z,3.67
2019-05-13T05:27:32.197Z,4.70
2019-05-13T05:31:02.177Z,4.05
2019-05-13T05:33:51.709Z,2.40
2019-05-13T05:37:11.689Z,1.87
2019-05-13T05:39:45.140Z,1.70
2019-05-13T05:42:21.617Z,2.10
2019-05-13T05:44:56.355Z,2.15
2019-05-13T05:47:33.222Z,1.80
2019-05-13T05:50:07.900Z,1.55
2019-05-13T05:52:43.780Z,1.60
2019-05-13T05:55:17.346Z,1.50
2019-05-13T05:57:52.243Z,2.85
2019-05-13T06:00:26.047Z,3.72
2019-05-13T06:03:02.523Z,4.95
2019-05-13T06:05:36.338Z,3.37
2019-05-13T06:08:11.440Z,1.87
2019-05-13T06:10:50.166Z,2.10
2019-05-13T06:13:21.414Z,1.57
2019-05-13T06:15:55.068Z,1.32
2019-05-13T06:18:28.612Z,1.30
2019-05-13T06:21:02.258Z,1.15
2019-05-13T06:23:36.857Z,1.70
2019-05-13T06:26:12.542Z,1.90
2019-05-13T06:28:45.472Z,3.77
2019-05-13T06:31:21.370Z,2.05
2019-05-13T06:33:54.114Z,1.77
2019-05-13T06:36:28.549Z,1.70
2019-05-13T06:39:02.531Z,1.72
2019-05-13T06:41:35.983Z,1.75
2019-05-13T06:44:11.992Z,1.75
2019-05-13T06:46:44.579Z,1.50
2019-05-13T06:49:18.017Z,2.30
2019-05-13T06:51:52.751Z,1.98
2019-05-13T06:54:26.382Z,1.65
2019-05-13T06:57:04.516Z,2.02
2019-05-13T06:59:35.150Z,1.60
2019-05-13T07:02:09.479Z,5.97
2019-05-13T07:04:42.849Z,6.15
2019-05-13T07:07:17.454Z,4.72
2019-05-13T07:09:51.698Z,3.33
2019-05-13T07:12:25.364Z,2.58
2019-05-13T07:14:58.802Z,2.52
2019-05-13T07:17:32.472Z,1.87
2019-05-13T07:20:14.018Z,2.00
2019-05-13T07:22:47.473Z,1.45
2019-05-13T07:25:22.172Z,1.57
2019-05-13T07:27:55.835Z,1.62
2019-05-13T07:30:44.245Z,2.35
2019-05-13T07:33:17.763Z,5.12
2019-05-13T07:35:57.329Z,3.22
2019-05-13T07:38:26.544Z,5.97
2019-05-13T07:41:06.352Z,2.90
2019-05-13T07:43:42.486Z,2.10
2019-05-13T07:46:14.764Z,1.50
2019-05-13T07:48:48.239Z,1.35
2019-05-13T07:51:22.304Z,1.30
2019-05-13T07:53:55.864Z,1.67
2019-05-13T07:56:29.249Z,1.50
2019-05-13T07:59:03.808Z,2.08
2019-05-13T08:01:37.236Z,1.85
2019-05-13T08:04:21.394Z,1.37
2019-05-13T08:06:45.810Z,1.75
2019-05-13T08:09:21.462Z,4.12
2019-05-13T08:12:05.461Z,1.62
2019-05-13T08:14:29.416Z,2.42
2019-05-13T08:17:03.065Z,2.40
2019-05-13T08:19:36.559Z,2.02
2019-05-13T08:22:11.727Z,1.35
2019-05-13T08:24:45.205Z,1.27
2019-05-13T08:27:24.028Z,1.15
2019-05-13T08:29:53.726Z,1.02
2019-05-13T08:35:58.719Z,1.20
2019-05-13T08:41:54.762Z,0.80
2019-05-13T08:44:28.589Z,3.00
2019-05-13T08:47:03.614Z,1.90
2019-05-13T08:49:37.128Z,2.00
2019-05-13T08:52:12.045Z,2.17
2019-05-13T08:54:45.687Z,1.72
2019-05-13T08:57:19.167Z,3.00
2019-05-13T08:59:52.672Z,1.25
2019-05-13T09:02:26.076Z,1.67
2019-05-13T09:05:02.320Z,1.27
2019-05-13T09:07:35.595Z,0.95
2019-05-13T09:10:09.473Z,0.93
2019-05-13T09:12:43.492Z,4.70
2019-05-13T09:15:17.330Z,2.60
2019-05-13T09:17:51.742Z,2.22
2019-05-13T09:20:25.229Z,2.42
2019-05-13T09:22:58.696Z,3.55
2019-05-13T09:25:32.152Z,2.60
2019-05-13T09:28:05.746Z,1.65
2019-05-13T09:30:42.158Z,0.90
2019-05-13T09:33:14.354Z,0.85
2019-05-13T09:35:50.204Z,1.60
2019-05-13T09:38:23.887Z,0.95
2019-05-13T09:40:57.349Z,1.67
2019-05-13T09:43:31.601Z,2.22
2019-05-13T09:46:05.104Z,1.72
2019-05-13T09:48:38.552Z,1.20
2019-05-13T09:51:12.531Z,1.45
2019-05-13T09:53:46.017Z,5.20
2019-05-13T09:56:19.312Z,2.77
2019-05-13T09:58:52.743Z,1.90
2019-05-13T10:01:26.035Z,1.12
2019-05-13T10:04:02.528Z,1.30
2019-05-13T10:06:35.733Z,3.75
2019-05-13T10:09:12.186Z,2.08
2019-05-13T10:11:45.074Z,3.22
2019-05-13T10:14:18.448Z,2.35
2019-05-13T10:16:51.896Z,1.80
2019-05-13T10:19:25.573Z,1.02
2019-05-13T10:21:59.138Z,4.00
2019-05-13T10:24:32.968Z,3.55
2019-05-13T10:27:06.545Z,2.30
2019-05-13T10:29:42.506Z,2.37
2019-05-13T10:32:15.643Z,1.92
2019-05-13T10:34:52.082Z,2.67
2019-05-13T10:37:24.670Z,1.35
2019-05-13T10:39:57.974Z,4.55
2019-05-13T10:42:31.252Z,1.27
2019-05-13T10:45:04.684Z,2.22
2019-05-13T10:47:37.997Z,2.62
2019-05-13T10:50:11.471Z,3.02
2019-05-13T10:52:44.699Z,4.08
2019-05-13T10:55:18.173Z,2.77
2019-05-13T10:57:51.536Z,2.17
2019-05-13T11:00:49.104Z,3.80
2019-05-13T11:03:24.410Z,1.07
2019-05-13T11:05:57.797Z,1.98
2019-05-13T11:08:33.145Z,1.57
2019-05-13T11:11:06.328Z,1.17
2019-05-13T11:13:52.385Z,1.30
2019-05-13T11:16:14.597Z,1.47
2019-05-13T11:18:51.884Z,4.90
2019-05-13T11:21:25.463Z,5.90
2019-05-13T11:23:58.810Z,4.12
2019-05-13T11:26:36.202Z,13.03
2019-05-13T11:29:07.145Z,1.70
2019-05-13T11:31:42.746Z,1.85
2019-05-13T11:34:15.377Z,3.15
2019-05-13T11:36:48.774Z,4.45
2019-05-13T11:39:22.383Z,2.70
2019-05-13T11:41:55.861Z,1.82
2019-05-13T11:44:31.948Z,2.92
2019-05-13T11:47:04.058Z,2.45
2019-05-13T11:49:37.420Z,1.40
2019-05-13T11:52:11.597Z,2.70
2019-05-13T11:54:45.263Z,3.80
2019-05-13T11:57:18.503Z,1.47
2019-05-13T11:59:52.678Z,7.58
2019-05-13T12:02:26.119Z,1.20
2019-05-13T12:05:03.314Z,1.42
2019-05-13T12:07:36.518Z,4.03
2019-05-13T12:10:12.461Z,1.77
2019-05-13T12:12:45.688Z,4.65
2019-05-13T12:15:33.685Z,1.60
2019-05-13T12:17:54.282Z,10.50
2019-05-13T12:20:27.676Z,1.70
2019-05-13T12:23:03.440Z,2.17
2019-05-13T12:25:37.333Z,0.93
2019-05-13T12:28:11.360Z,0.60
2019-05-13T12:30:45.054Z,0.82
2019-05-13T12:33:19.060Z,1.60
2019-05-13T12:35:53.773Z,0.72
2019-05-13T12:38:27.369Z,2.12
2019-05-13T12:41:05.364Z,2.42
2019-05-13T12:43:35.860Z,2.72
2019-05-13T12:46:12.274Z,1.20
2019-05-13T12:48:44.313Z,0.85
2019-05-13T12:51:17.707Z,1.47
2019-05-13T12:53:52.651Z,1.10
2019-05-13T12:56:26.393Z,0.88
2019-05-13T12:59:02.722Z,1.20
2019-05-13T13:01:35.093Z,1.10
2019-05-13T13:04:08.456Z,1.30
2019-05-13T13:06:45.287Z,1.40
2019-05-13T13:09:18.411Z,0.88
2019-05-13T13:11:54.513Z,0.90
2019-05-13T13:14:34.958Z,1.10
2019-05-13T13:17:04.110Z,0.98
2019-05-13T13:19:37.354Z,1.42
2019-05-13T13:22:13.482Z,1.90
2019-05-13T13:24:52.963Z,1.40
2019-05-13T13:27:47.110Z,0.98
2019-05-13T13:30:07.277Z,1.00
2019-05-13T13:32:37.418Z,2.35
2019-05-13T13:35:14.721Z,1.05
2019-05-13T13:37:46.587Z,1.30
2019-05-13T13:40:28.426Z,1.50
2019-05-13T13:42:55.466Z,1.70
2019-05-13T13:45:32.696Z,4.97
2019-05-13T13:48:05.535Z,1.90
2019-05-13T13:50:38.991Z,5.08
2019-05-13T13:53:13.881Z,4.90
2019-05-13T13:55:47.577Z,8.10
2019-05-13T13:58:25.381Z,11.83
2019-05-13T14:01:07.251Z,4.47
2019-05-13T14:03:33.910Z,5.45
2019-05-13T14:06:12.351Z,5.62
2019-05-13T14:08:45.291Z,8.73
2019-05-13T14:11:18.658Z,5.45
2019-05-13T14:13:52.134Z,3.22
2019-05-13T14:16:31.493Z,2.83
2019-05-13T14:19:02.327Z,2.47
2019-05-13T14:21:35.806Z,2.05
2019-05-13T14:24:12.064Z,1.10
2019-05-13T14:26:46.064Z,2.50
2019-05-13T14:29:36.314Z,5.33
2019-05-13T14:32:01.987Z,5.85
2019-05-13T14:34:36.964Z,2.50
2019-05-13T14:37:12.073Z,5.58
2019-05-13T14:39:45.815Z,3.02
2019-05-13T14:42:22.570Z,3.98
2019-05-13T14:44:54.946Z,5.97
2019-05-13T14:47:28.746Z,7.10
2019-05-13T14:50:02.532Z,7.22
2019-05-13T14:52:36.176Z,5.85
2019-05-13T14:55:11.283Z,6.17
2019-05-13T14:57:47.265Z,1.82
2019-05-13T15:00:22.477Z,2.27
2019-05-13T15:02:57.015Z,3.75
2019-05-13T15:05:31.445Z,3.37
2019-05-13T15:08:04.943Z,4.10
2019-05-13T15:10:38.382Z,3.58
2019-05-13T15:13:12.266Z,3.40
2019-05-13T15:15:45.622Z,3.25
2019-05-13T15:18:19.154Z,3.27
2019-05-13T15:20:53.115Z,7.65
2019-05-13T15:23:38.947Z,2.70
2019-05-13T15:26:13.467Z,3.65
2019-05-13T15:28:51.098Z,2.90
2019-05-13T15:31:24.503Z,2.72
2019-05-13T15:33:58.069Z,1.70
2019-05-13T15:36:32.676Z,2.50
2019-05-13T15:39:11.283Z,2.10
2019-05-13T15:41:45.552Z,9.88
2019-05-13T15:44:21.821Z,54.35
2019-05-13T15:46:54.527Z,6.55
2019-05-13T15:49:28.194Z,2.20
2019-05-13T15:52:02.202Z,2.65
2019-05-13T15:54:35.646Z,2.50
2019-05-13T15:57:13.779Z,2.50
2019-05-13T15:59:47.273Z,3.45
2019-05-13T16:02:22.622Z,2.45
2019-05-13T16:05:01.282Z,1.87
2019-05-13T16:07:32.175Z,8.13
2019-05-13T16:10:06.510Z,4.25
2019-05-13T16:12:42.290Z,2.25
2019-05-13T16:15:16.696Z,14.07
2019-05-13T16:17:52.089Z,8.25
2019-05-13T16:20:25.917Z,1.90
2019-05-13T16:23:02.162Z,2.12
2019-05-13T16:25:35.216Z,2.05
2019-05-13T16:28:08.892Z,2.20
2019-05-13T16:30:42.484Z,2.70
2019-05-13T16:33:17.320Z,2.17
2019-05-13T16:35:51.723Z,3.37
2019-05-13T16:38:25.357Z,5.40
2019-05-13T16:40:59.553Z,3.55
2019-05-13T16:43:33.030Z,8.30
2019-05-13T16:46:07.271Z,7.35
2019-05-13T16:48:41.581Z,4.58
2019-05-13T16:51:15.778Z,3.10
2019-05-13T16:53:49.148Z,5.55
2019-05-13T16:56:27.852Z,8.40
2019-05-13T16:58:57.461Z,3.20
2019-05-13T17:01:30.866Z,2.90
2019-05-13T17:04:05.239Z,2.98
2019-05-13T17:06:41.878Z,2.70
2019-05-13T17:09:15.324Z,2.02
2019-05-13T17:11:48.754Z,3.02
2019-05-13T17:14:22.115Z,2.10
2019-05-13T17:16:55.440Z,1.60
2019-05-13T17:19:28.814Z,2.00
2019-05-13T17:22:02.663Z,2.62
2019-05-13T17:24:36.076Z,2.17
2019-05-13T17:27:09.483Z,2.10
2019-05-13T17:29:42.868Z,2.00
2019-05-13T17:32:16.175Z,2.40
2019-05-13T17:34:51.423Z,2.00
2019-05-13T17:37:25.383Z,1.85
2019-05-13T17:40:01.134Z,4.20
2019-05-13T17:42:33.936Z,4.00
2019-05-13T17:45:07.660Z,9.13
2019-05-13T17:47:41.774Z,5.58
2019-05-13T17:50:15.549Z,5.15
2019-05-13T17:52:51.218Z,6.47
2019-05-13T17:55:23.936Z,8.25
2019-05-13T17:57:57.273Z,8.78
2019-05-13T18:00:32.242Z,7.35
2019-05-13T18:03:05.879Z,6.92
2019-05-13T18:05:39.083Z,4.17
2019-05-13T18:08:12.354Z,5.90
2019-05-13T18:10:45.585Z,6.00
2019-05-13T18:13:21.355Z,4.75
2019-05-13T18:15:54.003Z,9.93
2019-05-13T18:18:39.174Z,25.48
2019-05-13T18:21:02.411Z,31.57
2019-05-13T18:23:35.816Z,23.05
2019-05-13T18:26:09.233Z,24.55
2019-05-13T18:28:42.665Z,20.57
2019-05-13T18:31:16.064Z,14.98
2019-05-13T18:33:51.073Z,13.62
2019-05-13T18:36:24.465Z,8.95
2019-05-13T18:38:57.925Z,8.15
2019-05-13T18:41:31.668Z,5.80
2019-05-13T18:44:05.143Z,7.45
2019-05-13T18:46:38.602Z,8.50
2019-05-13T18:49:12.239Z,9.10
2019-05-13T18:51:45.503Z,7.22
2019-05-13T18:54:18.934Z,5.60
2019-05-13T18:56:52.495Z,5.72
2019-05-13T18:59:26.879Z,5.53
2019-05-13T19:02:01.548Z,5.65
2019-05-13T19:04:36.056Z,5.55
2019-05-13T19:07:09.465Z,5.75
2019-05-13T19:09:42.724Z,5.50
2019-05-13T19:12:16.155Z,6.35
2019-05-13T19:14:52.918Z,6.92
2019-05-13T19:17:26.390Z,7.83
2019-05-13T19:19:59.837Z,8.58
2019-05-13T19:22:33.468Z,10.25
2019-05-13T19:25:07.377Z,8.28
2019-05-13T19:27:41.521Z,5.53
2019-05-13T19:30:15.207Z,7.05
2019-05-13T19:32:48.686Z,6.50
2019-05-13T19:35:22.618Z,5.60
2019-05-13T19:37:56.010Z,6.62
2019-05-13T19:40:31.273Z,5.53
2019-05-13T19:43:04.514Z,6.47
2019-05-13T19:45:38.214Z,5.17
2019-05-13T19:48:12.026Z,4.92
2019-05-13T19:50:45.458Z,4.62
2019-05-13T19:53:18.896Z,4.90
2019-05-13T19:55:52.340Z,5.03
2019-05-13T19:58:25.778Z,4.90
2019-05-13T20:00:59.237Z,6.05
2019-05-13T20:03:32.785Z,5.45
2019-05-13T20:06:06.264Z,4.95
2019-05-13T20:08:41.300Z,5.40
2019-05-13T20:11:14.989Z,5.53
2019-05-13T20:13:48.456Z,5.85
2019-05-13T20:16:22.436Z,5.90
2019-05-13T20:18:55.910Z,5.95
2019-05-13T20:21:31.755Z,5.85
2019-05-13T20:24:04.496Z,5.35
2019-05-13T20:26:37.960Z,5.83
2019-05-13T20:29:12.376Z,7.08
2019-05-13T20:31:46.201Z,5.95
2019-05-13T20:34:22.048Z,5.87
2019-05-13T20:36:54.949Z,5.92
2019-05-13T20:39:28.900Z,6.92
2019-05-13T20:42:02.792Z,6.17
2019-05-13T20:44:36.318Z,6.35
2019-05-13T20:47:10.171Z,6.90
2019-05-13T20:49:43.545Z,5.58
2019-05-13T20:52:17.109Z,4.95
2019-05-13T20:54:51.225Z,5.47
2019-05-13T20:57:26.086Z,5.15
2019-05-13T21:00:01.832Z,4.85
2019-05-13T21:02:34.949Z,5.50
2019-05-13T21:05:08.873Z,5.35
2019-05-13T21:07:42.267Z,4.55
2019-05-13T21:10:17.018Z,4.55
2019-05-13T21:12:51.402Z,4.50
2019-05-13T21:15:25.174Z,4.83
2019-05-13T21:17:58.825Z,4.47
2019-05-13T21:20:32.514Z,4.60
2019-05-13T21:23:06.832Z,5.20
2019-05-13T21:25:41.811Z,5.35
2019-05-13T21:28:15.735Z,5.00
2019-05-13T21:30:51.498Z,4.80
2019-05-13T21:33:27.415Z,4.58
2019-05-13T21:36:01.691Z,5.28
2019-05-13T21:38:36.658Z,5.33
2019-05-13T21:41:11.778Z,5.08
2019-05-13T21:43:45.466Z,4.47
2019-05-13T21:46:21.110Z,4.80
2019-05-13T21:48:55.137Z,4.70
2019-05-13T21:51:31.379Z,4.80
2019-05-13T21:54:04.683Z,4.62
2019-05-13T21:56:38.208Z,6.05
2019-05-13T21:59:11.761Z,4.97
2019-05-13T22:01:45.197Z,5.85
2019-05-13T22:04:18.739Z,5.85
2019-05-13T22:06:52.663Z,5.50
2019-05-13T22:09:26.503Z,5.00
2019-05-13T22:12:01.895Z,4.75
2019-05-13T22:14:35.155Z,4.72
2019-05-13T22:17:09.046Z,5.72
2019-05-13T22:19:42.823Z,5.80
2019-05-13T22:22:16.447Z,6.00
2019-05-13T22:24:51.232Z,6.75
2019-05-13T22:27:24.799Z,6.78
2019-05-13T22:30:01.300Z,6.78
2019-05-13T22:32:34.880Z,6.53
2019-05-13T22:35:11.029Z,6.22
2019-05-13T22:37:43.902Z,6.37
2019-05-13T22:40:18.313Z,7.12
2019-05-13T22:42:56.823Z,6.45
2019-05-13T22:45:27.144Z,4.95
2019-05-13T22:48:02.696Z,4.22
2019-05-13T22:50:36.066Z,4.10
2019-05-13T22:53:11.845Z,4.20
2019-05-13T22:55:44.869Z,3.92
2019-05-13T22:58:22.359Z,3.10
2019-05-13T23:00:55.409Z,3.47
2019-05-13T23:03:30.270Z,3.55
2019-05-13T23:06:05.402Z,4.30
2019-05-13T23:08:39.535Z,4.28
2019-05-13T23:11:13.839Z,3.77
2019-05-13T23:13:51.343Z,4.20
2019-05-13T23:16:28.120Z,4.47
2019-05-13T23:19:05.152Z,4.37
2019-05-13T23:21:38.897Z,5.15
2019-05-13T23:24:12.889Z,5.03
2019-05-13T23:26:47.025Z,5.05
2019-05-13T23:29:21.369Z,5.10
2019-05-13T23:31:57.416Z,5.70
2019-05-13T23:34:32.035Z,5.05
2019-05-13T23:37:06.225Z,5.12
2019-05-13T23:39:41.819Z,5.72
2019-05-13T23:42:21.221Z,5.70
2019-05-13T23:44:58.750Z,5.67
2019-05-13T23:47:36.852Z,5.70
2019-05-13T23:50:13.800Z,5.42
2019-05-13T23:52:47.933Z,4.97
2019-05-13T23:55:22.621Z,6.58
2019-05-13T23:57:56.875Z,5.97
